createdAt,value
2018-02-22T00:01:39.989Z,21.77
2018-02-22T00:04:08.894Z,23.15
2018-02-22T00:06:37.185Z,27.35
2018-02-22T00:09:05.537Z,25.12
2018-02-22T00:11:33.854Z,27.92
2018-02-22T00:14:02.154Z,29.17
2018-02-22T00:16:30.464Z,26.45
2018-02-22T00:18:58.778Z,26.15
2018-02-22T00:21:27.075Z,23.87
2018-02-22T00:23:55.405Z,24.08
2018-02-22T00:26:23.681Z,25.17
2018-02-22T00:28:51.979Z,18.23
2018-02-22T00:31:20.293Z,25.90
2018-02-22T00:33:48.592Z,25.60
2018-02-22T00:36:16.905Z,20.58
2018-02-22T00:38:45.202Z,22.00
2018-02-22T00:41:13.453Z,20.98
2018-02-22T00:43:41.721Z,21.10
2018-02-22T00:46:10.080Z,20.12
2018-02-22T00:48:38.401Z,21.95
2018-02-22T00:51:06.700Z,19.62
2018-02-22T00:53:35.058Z,23.77
2018-02-22T00:56:03.370Z,23.12
2018-02-22T00:58:31.652Z,19.20
2018-02-22T01:01:01.023Z,24.17
2018-02-22T01:03:29.293Z,25.48
2018-02-22T01:05:57.580Z,19.35
2018-02-22T01:08:25.931Z,21.05
2018-02-22T01:10:54.224Z,20.85
2018-02-22T01:13:22.534Z,20.50
2018-02-22T01:15:50.834Z,20.02
2018-02-22T01:18:19.149Z,26.62
2018-02-22T01:20:47.489Z,18.25
2018-02-22T01:23:15.805Z,20.52
2018-02-22T01:25:44.095Z,13.60
2018-02-22T01:28:12.374Z,23.05
2018-02-22T01:30:40.693Z,21.48
2018-02-22T01:33:08.999Z,15.63
2018-02-22T01:35:37.310Z,21.42
2018-02-22T01:38:05.593Z,20.10
2018-02-22T01:40:34.993Z,27.33
2018-02-22T01:43:03.274Z,18.70
2018-02-22T01:45:31.602Z,19.27
2018-02-22T01:47:59.891Z,18.30
2018-02-22T01:50:28.168Z,18.65
2018-02-22T01:52:56.509Z,23.00
2018-02-22T01:55:24.802Z,20.52
2018-02-22T01:57:53.105Z,16.62
2018-02-22T02:00:22.494Z,17.75
2018-02-22T02:02:50.777Z,21.45
2018-02-22T02:05:19.058Z,18.05
2018-02-22T02:07:47.366Z,17.05
2018-02-22T02:10:15.705Z,21.17
2018-02-22T02:12:44.018Z,22.40
2018-02-22T02:15:12.313Z,15.55
2018-02-22T02:17:40.580Z,17.90
2018-02-22T02:20:08.889Z,18.83
2018-02-22T02:22:37.206Z,18.45
2018-02-22T02:25:05.541Z,15.27
2018-02-22T02:27:33.846Z,18.62
2018-02-22T02:30:02.116Z,21.40
2018-02-22T02:32:30.397Z,13.02
2018-02-22T02:34:58.709Z,15.32
2018-02-22T02:37:27.050Z,18.55
2018-02-22T02:39:55.344Z,17.10
2018-02-22T02:42:23.637Z,16.05
2018-02-22T02:44:51.921Z,16.65
2018-02-22T02:47:20.228Z,16.33
2018-02-22T02:49:48.541Z,15.63
2018-02-22T02:52:16.844Z,19.00
2018-02-22T02:54:45.131Z,18.17
2018-02-22T02:57:13.430Z,15.93
2018-02-22T02:59:41.734Z,16.90
2018-02-22T03:02:10.051Z,19.70
2018-02-22T03:04:38.338Z,16.48
2018-02-22T03:07:06.634Z,20.05
2018-02-22T03:09:34.935Z,20.77
2018-02-22T03:12:03.221Z,18.58
2018-02-22T03:14:31.549Z,20.65
2018-02-22T03:16:59.817Z,22.05
2018-02-22T03:19:28.112Z,16.42
2018-02-22T03:21:56.402Z,15.32
2018-02-22T03:24:24.693Z,18.33
2018-02-22T03:26:52.974Z,19.80
2018-02-22T03:29:21.314Z,18.65
2018-02-22T03:31:49.635Z,19.40
2018-02-22T03:34:17.945Z,16.02
2018-02-22T03:36:46.250Z,17.87
2018-02-22T03:39:14.577Z,20.73
2018-02-22T03:41:42.881Z,13.52
2018-02-22T03:44:11.171Z,23.60
2018-02-22T03:46:39.453Z,15.00
2018-02-22T03:49:07.794Z,18.15
2018-02-22T03:51:36.097Z,16.37
2018-02-22T03:54:04.410Z,16.12
2018-02-22T03:56:32.713Z,14.15
2018-02-22T03:59:01.068Z,19.50
2018-02-22T04:01:29.355Z,24.60
2018-02-22T04:03:57.690Z,17.77
2018-02-22T04:06:26.010Z,20.10
2018-02-22T04:08:54.297Z,31.08
2018-02-22T04:11:22.641Z,12.98
2018-02-22T04:13:50.973Z,14.20
2018-02-22T04:16:19.270Z,21.02
2018-02-22T04:18:47.601Z,18.85
2018-02-22T04:21:15.922Z,14.90
2018-02-22T04:23:44.213Z,18.52
2018-02-22T04:26:12.513Z,14.23
2018-02-22T04:28:40.846Z,27.17
2018-02-22T04:31:09.121Z,15.27
2018-02-22T04:33:37.422Z,18.27
2018-02-22T04:36:05.726Z,18.45
2018-02-22T04:38:34.009Z,15.13
2018-02-22T04:41:02.323Z,15.95
2018-02-22T04:43:30.613Z,18.52
2018-02-22T04:45:58.921Z,14.40
2018-02-22T04:48:27.221Z,15.95
2018-02-22T04:50:55.518Z,22.52
2018-02-22T04:53:23.798Z,18.50
2018-02-22T04:55:52.069Z,14.82
2018-02-22T04:58:20.410Z,18.60
2018-02-22T05:00:48.734Z,17.95
2018-02-22T05:03:17.342Z,15.90
2018-02-22T05:05:45.905Z,15.70
2018-02-22T05:08:14.219Z,11.05
2018-02-22T05:10:42.485Z,12.55
2018-02-22T05:13:10.817Z,14.23
2018-02-22T05:15:39.105Z,11.12
2018-02-22T05:18:07.404Z,16.20
2018-02-22T05:20:35.710Z,17.85
2018-02-22T05:23:03.997Z,12.70
2018-02-22T05:25:32.285Z,14.23
2018-02-22T05:28:00.601Z,13.90
2018-02-22T05:30:28.873Z,19.98
2018-02-22T05:32:57.141Z,11.55
2018-02-22T05:35:25.457Z,13.52
2018-02-22T05:37:54.850Z,14.45
2018-02-22T05:40:23.143Z,11.43
2018-02-22T05:42:51.543Z,16.48
2018-02-22T05:45:19.862Z,12.07
2018-02-22T05:47:48.201Z,12.88
2018-02-22T05:50:16.546Z,9.65
2018-02-22T05:52:44.893Z,13.32
2018-02-22T05:55:13.255Z,8.70
2018-02-22T05:57:41.571Z,15.23
2018-02-22T06:00:09.861Z,10.60
2018-02-22T06:02:38.166Z,12.85
2018-02-22T06:05:06.453Z,10.57
2018-02-22T06:07:34.772Z,13.25
2018-02-22T06:10:03.069Z,10.43
2018-02-22T06:12:31.365Z,16.60
2018-02-22T06:14:59.672Z,12.00
2018-02-22T06:17:27.976Z,14.30
2018-02-22T06:19:56.278Z,11.75
2018-02-22T06:22:24.549Z,12.30
2018-02-22T06:24:52.871Z,14.90
2018-02-22T06:27:21.205Z,12.50
2018-02-22T06:29:49.508Z,11.77
2018-02-22T06:32:17.841Z,9.32
2018-02-22T06:34:46.144Z,9.65
2018-02-22T06:37:14.425Z,11.07
2018-02-22T06:39:42.764Z,11.60
2018-02-22T06:42:11.078Z,11.63
2018-02-22T06:44:39.361Z,13.15
2018-02-22T06:47:07.665Z,12.68
2018-02-22T06:49:35.982Z,13.40
2018-02-22T06:52:04.237Z,13.48
2018-02-22T06:54:32.545Z,10.45
2018-02-22T06:57:00.870Z,11.75
2018-02-22T06:59:29.153Z,15.10
2018-02-22T07:01:57.436Z,11.55
2018-02-22T07:04:25.741Z,10.23
2018-02-22T07:06:54.044Z,11.07
2018-02-22T07:09:22.341Z,10.43
2018-02-22T07:11:50.655Z,11.48
2018-02-22T07:14:18.978Z,9.13
2018-02-22T07:16:47.322Z,8.73
2018-02-22T07:19:15.645Z,12.13
2018-02-22T07:21:43.933Z,7.72
2018-02-22T07:24:12.239Z,8.10
2018-02-22T07:26:40.515Z,8.95
2018-02-22T07:29:08.813Z,9.35
2018-02-22T07:31:37.134Z,5.82
2018-02-22T07:34:05.430Z,9.93
2018-02-22T07:36:33.744Z,34.40
2018-02-22T07:39:02.065Z,11.15
2018-02-22T07:41:31.438Z,10.15
2018-02-22T07:43:59.713Z,8.15
2018-02-22T07:46:28.021Z,8.57
2018-02-22T07:48:56.297Z,11.00
2018-02-22T07:51:24.639Z,11.18
2018-02-22T07:53:52.936Z,9.38
2018-02-22T07:56:21.250Z,6.82
2018-02-22T07:58:49.635Z,10.57
2018-02-22T08:01:17.923Z,12.55
2018-02-22T08:03:46.249Z,7.70
2018-02-22T08:06:14.525Z,9.23
2018-02-22T08:08:42.829Z,10.30
2018-02-22T08:11:11.119Z,8.38
2018-02-22T08:13:39.396Z,10.98
2018-02-22T08:16:07.678Z,9.60
2018-02-22T08:18:36.024Z,7.95
2018-02-22T08:21:04.302Z,11.82
2018-02-22T08:23:32.596Z,7.68
2018-02-22T08:26:00.877Z,13.25
2018-02-22T08:28:29.136Z,10.40
2018-02-22T08:30:57.433Z,8.27
2018-02-22T08:33:25.745Z,12.18
2018-02-22T08:35:54.053Z,7.57
2018-02-22T08:38:22.349Z,9.18
2018-02-22T08:40:50.636Z,9.73
2018-02-22T08:43:18.961Z,8.95
2018-02-22T08:45:47.393Z,11.52
2018-02-22T08:48:15.690Z,10.43
2018-02-22T08:50:43.998Z,14.95
2018-02-22T08:53:12.315Z,7.68
2018-02-22T08:55:40.636Z,37.08
2018-02-22T08:58:08.945Z,10.52
2018-02-22T09:00:37.365Z,10.40
2018-02-22T09:03:05.686Z,9.35
2018-02-22T09:05:33.994Z,9.30
2018-02-22T09:08:02.322Z,11.38
2018-02-22T09:10:30.618Z,11.25
2018-02-22T09:12:58.917Z,11.05
2018-02-22T09:15:27.221Z,11.35
2018-02-22T09:17:55.513Z,8.73
2018-02-22T09:20:23.821Z,14.40
2018-02-22T09:22:52.134Z,13.33
2018-02-22T09:25:21.513Z,15.10
2018-02-22T09:27:49.527Z,8.50
2018-02-22T09:30:17.568Z,8.30
2018-02-22T09:32:45.889Z,13.90
2018-02-22T09:35:13.873Z,12.63
2018-02-22T09:37:41.868Z,9.40
2018-02-22T09:40:09.889Z,10.20
2018-02-22T09:42:37.886Z,9.23
2018-02-22T09:45:05.889Z,13.47
2018-02-22T09:47:33.882Z,11.03
2018-02-22T09:50:01.881Z,10.03
2018-02-22T09:52:29.918Z,13.17
2018-02-22T09:54:57.918Z,13.60
2018-02-22T09:57:26.086Z,11.40
2018-02-22T09:59:54.109Z,14.73
2018-02-22T10:02:22.141Z,12.27
2018-02-22T10:04:50.165Z,10.35
2018-02-22T10:07:18.260Z,14.73
2018-02-22T10:09:46.259Z,11.00
2018-02-22T10:12:14.249Z,10.83
2018-02-22T10:14:42.278Z,10.57
2018-02-22T10:17:10.342Z,10.88
2018-02-22T10:19:38.326Z,13.35
2018-02-22T10:22:07.443Z,12.85
2018-02-22T10:24:35.439Z,12.02
2018-02-22T10:27:03.417Z,12.13
2018-02-22T10:29:31.413Z,13.55
2018-02-22T10:31:59.442Z,14.25
2018-02-22T10:34:27.432Z,11.75
2018-02-22T10:36:55.410Z,13.68
2018-02-22T10:39:23.403Z,15.57
2018-02-22T10:41:51.358Z,15.45
2018-02-22T10:44:19.385Z,13.32
2018-02-22T10:46:47.374Z,16.70
2018-02-22T10:49:15.451Z,14.95
2018-02-22T10:51:43.457Z,27.98
2018-02-22T10:54:11.521Z,12.63
2018-02-22T10:56:39.557Z,13.50
2018-02-22T10:59:07.620Z,12.30
2018-02-22T11:01:41.554Z,11.98
2018-02-22T11:04:09.542Z,11.70
2018-02-22T11:06:37.569Z,11.20
2018-02-22T11:09:05.557Z,10.60
2018-02-22T11:11:33.574Z,11.65
2018-02-22T11:14:02.619Z,10.88
2018-02-22T11:16:30.631Z,14.50
2018-02-22T11:18:58.655Z,11.30
2018-02-22T11:21:26.654Z,10.95
2018-02-22T11:23:54.626Z,10.07
2018-02-22T11:26:22.632Z,10.18
2018-02-22T11:28:50.618Z,10.27
2018-02-22T11:31:18.634Z,12.27
2018-02-22T11:33:46.650Z,11.88
2018-02-22T11:36:14.691Z,14.00
2018-02-22T11:38:42.692Z,11.95
2018-02-22T11:41:10.727Z,10.52
2018-02-22T11:43:38.721Z,17.00
2018-02-22T11:46:07.708Z,11.02
2018-02-22T11:48:35.712Z,12.50
2018-02-22T11:51:03.702Z,9.23
2018-02-22T11:53:31.685Z,11.18
2018-02-22T11:55:59.704Z,11.43
2018-02-22T11:58:27.661Z,16.12
2018-02-22T12:00:55.642Z,11.18
2018-02-22T12:03:23.671Z,13.60
2018-02-22T12:05:51.693Z,13.20
2018-02-22T12:08:19.649Z,8.35
2018-02-22T12:10:47.656Z,8.80
2018-02-22T12:13:16.670Z,11.25
2018-02-22T12:15:44.706Z,8.30
2018-02-22T12:18:12.665Z,8.68
2018-02-22T12:20:40.637Z,8.80
2018-02-22T12:23:08.652Z,7.55
2018-02-22T12:25:36.730Z,8.35
2018-02-22T12:28:04.763Z,9.98
2018-02-22T12:30:33.857Z,10.07
2018-02-22T12:33:01.877Z,8.85
2018-02-22T12:35:29.859Z,11.77
2018-02-22T12:37:57.841Z,12.70
2018-02-22T12:40:25.861Z,10.10
2018-02-22T12:42:53.887Z,10.85
2018-02-22T12:45:21.888Z,8.15
2018-02-22T12:47:49.929Z,11.12
2018-02-22T12:50:17.949Z,6.37
2018-02-22T12:52:45.964Z,9.15
2018-02-22T12:55:13.985Z,10.95
2018-02-22T12:57:41.989Z,9.30
2018-02-22T13:00:09.999Z,9.48
2018-02-22T13:02:37.990Z,8.45
2018-02-22T13:05:05.990Z,8.88
2018-02-22T13:07:34.871Z,6.47
2018-02-22T13:10:02.936Z,7.18
2018-02-22T13:12:30.897Z,7.30
2018-02-22T13:14:58.890Z,9.10
2018-02-22T13:17:26.926Z,6.25
2018-02-22T13:19:55.322Z,6.55
2018-02-22T13:22:24.390Z,6.00
2018-02-22T13:24:54.449Z,11.82
2018-02-22T13:27:22.498Z,7.90
2018-02-22T13:29:50.537Z,6.97
2018-02-22T13:32:18.608Z,9.32
2018-02-22T13:34:46.670Z,6.15
2018-02-22T13:37:20.939Z,8.88
2018-02-22T13:39:48.975Z,7.45
2018-02-22T13:42:17.264Z,5.95
2018-02-22T13:44:51.394Z,9.88
2018-02-22T13:47:19.617Z,9.98
2018-02-22T13:49:53.801Z,7.40
2018-02-22T13:52:21.914Z,9.55
2018-02-22T13:54:49.893Z,6.22
2018-02-22T13:57:18.746Z,6.90
2018-02-22T13:59:46.778Z,7.87
2018-02-22T14:02:26.717Z,7.00
2018-02-22T14:04:54.704Z,13.65
2018-02-22T14:07:22.673Z,6.62
2018-02-22T14:09:50.717Z,6.87
2018-02-22T14:12:18.745Z,7.50
2018-02-22T14:14:46.779Z,6.30
2018-02-22T14:17:14.904Z,9.73
2018-02-22T14:19:42.878Z,7.60
2018-02-22T14:22:10.861Z,8.20
2018-02-22T14:24:38.878Z,8.70
2018-02-22T14:27:06.878Z,7.32
2018-02-22T14:29:34.870Z,10.40
2018-02-22T14:32:02.865Z,8.27
2018-02-22T14:34:30.858Z,8.63
2018-02-22T14:36:58.845Z,5.53
2018-02-22T14:39:26.821Z,7.65
2018-02-22T14:41:54.809Z,7.37
2018-02-22T14:44:22.791Z,4.40
2018-02-22T14:46:50.797Z,9.02
2018-02-22T14:49:19.825Z,6.80
2018-02-22T14:51:47.975Z,8.25
2018-02-22T14:54:16.011Z,5.75
2018-02-22T14:56:44.017Z,5.57
2018-02-22T14:59:12.028Z,6.10
2018-02-22T15:01:39.997Z,6.47
2018-02-22T15:04:08.049Z,4.93
2018-02-22T15:06:36.086Z,6.60
2018-02-22T15:09:04.333Z,8.98
2018-02-22T15:11:32.374Z,8.18
2018-02-22T15:14:00.359Z,7.80
2018-02-22T15:16:28.321Z,7.82
2018-02-22T15:18:56.554Z,8.88
2018-02-22T15:21:24.625Z,7.82
2018-02-22T15:23:52.870Z,29.37
2018-02-22T15:26:21.020Z,10.43
2018-02-22T15:28:50.133Z,8.55
2018-02-22T15:31:18.182Z,7.87
2018-02-22T15:33:46.211Z,10.60
2018-02-22T15:36:14.137Z,6.18
2018-02-22T15:38:42.149Z,6.12
2018-02-22T15:41:10.157Z,5.32
2018-02-22T15:43:38.149Z,6.55
2018-02-22T15:46:06.147Z,10.80
2018-02-22T15:48:34.148Z,5.35
2018-02-22T15:51:02.173Z,7.32
2018-02-22T15:53:30.177Z,7.85
2018-02-22T15:55:58.316Z,8.68
2018-02-22T15:58:26.409Z,7.45
2018-02-22T16:00:54.383Z,7.85
2018-02-22T16:03:22.368Z,7.32
2018-02-22T16:05:50.430Z,8.60
2018-02-22T16:08:18.449Z,7.70
2018-02-22T16:10:46.456Z,13.43
2018-02-22T16:13:14.507Z,7.35
2018-02-22T16:15:42.481Z,8.45
2018-02-22T16:18:10.493Z,7.75
2018-02-22T16:20:38.490Z,7.85
2018-02-22T16:23:06.513Z,5.37
2018-02-22T16:25:34.561Z,8.07
2018-02-22T16:28:02.546Z,7.00
2018-02-22T16:30:30.550Z,6.72
2018-02-22T16:32:58.590Z,9.20
2018-02-22T16:35:26.589Z,8.70
2018-02-22T16:37:55.642Z,6.35
2018-02-22T16:40:23.695Z,8.13
2018-02-22T16:42:51.733Z,10.07
2018-02-22T16:45:19.749Z,6.28
2018-02-22T16:47:48.732Z,6.85
2018-02-22T16:50:16.751Z,10.70
2018-02-22T16:52:44.793Z,5.50
2018-02-22T16:55:12.825Z,6.60
2018-02-22T16:57:41.822Z,6.82
2018-02-22T17:00:09.811Z,16.62
2018-02-22T17:02:37.826Z,11.85
2018-02-22T17:05:05.858Z,6.15
2018-02-22T17:07:33.892Z,8.40
2018-02-22T17:10:01.911Z,9.80
2018-02-22T17:12:29.892Z,4.72
2018-02-22T17:14:57.921Z,7.00
2018-02-22T17:17:43.869Z,9.77
2018-02-22T17:20:11.920Z,8.23
2018-02-22T17:22:39.892Z,5.93
2018-02-22T17:25:07.906Z,9.15
2018-02-22T17:27:41.928Z,6.30
2018-02-22T17:30:16.085Z,11.38
2018-02-22T17:32:44.113Z,12.93
2018-02-22T17:35:12.183Z,6.80
2018-02-22T17:37:41.253Z,8.25
2018-02-22T17:40:28.229Z,10.23
2018-02-22T17:42:57.185Z,27.37
2018-02-22T17:45:25.206Z,7.22
2018-02-22T17:47:54.297Z,10.02
2018-02-22T17:50:22.322Z,8.27
2018-02-22T17:52:50.350Z,8.07
2018-02-22T17:55:18.477Z,8.10
2018-02-22T17:57:48.349Z,7.37
2018-02-22T18:00:17.808Z,6.95
2018-02-22T18:02:45.851Z,9.35
2018-02-22T18:05:13.887Z,5.53
2018-02-22T18:07:41.914Z,6.18
2018-02-22T18:10:09.918Z,9.20
2018-02-22T18:12:38.019Z,5.12
2018-02-22T18:15:06.185Z,8.45
2018-02-22T18:17:34.236Z,7.07
2018-02-22T18:20:02.302Z,8.43
2018-02-22T18:22:30.480Z,5.50
2018-02-22T18:24:58.513Z,10.82
2018-02-22T18:27:26.473Z,8.30
2018-02-22T18:29:54.445Z,31.35
2018-02-22T18:32:22.466Z,6.53
2018-02-22T18:34:50.483Z,8.55
2018-02-22T18:37:24.713Z,6.80
2018-02-22T18:39:52.766Z,8.45
2018-02-22T18:42:20.789Z,7.32
2018-02-22T18:44:54.850Z,8.45
2018-02-22T18:47:22.862Z,12.48
2018-02-22T18:49:50.886Z,20.52
2018-02-22T18:52:18.882Z,5.22
2018-02-22T18:54:46.996Z,8.35
2018-02-22T18:57:14.971Z,5.55
2018-02-22T18:59:42.942Z,7.65
2018-02-22T19:02:10.942Z,6.78
2018-02-22T19:04:38.993Z,12.00
2018-02-22T19:07:07.045Z,5.32
2018-02-22T19:09:35.110Z,8.63
2018-02-22T19:12:03.142Z,5.97
2018-02-22T19:14:31.137Z,7.78
2018-02-22T19:16:59.153Z,9.63
2018-02-22T19:19:27.146Z,8.65
2018-02-22T19:21:55.138Z,7.97
2018-02-22T19:24:23.197Z,13.10
2018-02-22T19:26:51.245Z,7.55
2018-02-22T19:29:19.285Z,6.72
2018-02-22T19:31:47.433Z,11.48
2018-02-22T19:34:15.417Z,5.18
2018-02-22T19:36:43.377Z,5.75
2018-02-22T19:39:11.390Z,7.40
2018-02-22T19:41:39.405Z,7.43
2018-02-22T19:44:07.417Z,9.07
2018-02-22T19:46:35.453Z,6.25
2018-02-22T19:49:03.505Z,11.50
2018-02-22T19:51:31.520Z,12.32
2018-02-22T19:53:59.542Z,12.45
2018-02-22T19:56:27.577Z,7.03
2018-02-22T19:58:55.582Z,4.72
2018-02-22T20:01:24.691Z,10.35
2018-02-22T20:03:52.746Z,7.60
2018-02-22T20:06:20.793Z,10.88
2018-02-22T20:08:48.912Z,6.62
2018-02-22T20:11:17.175Z,8.13
2018-02-22T20:13:45.261Z,7.40
2018-02-22T20:16:13.265Z,8.68
2018-02-22T20:18:41.253Z,6.55
2018-02-22T20:21:09.205Z,9.48
2018-02-22T20:23:37.254Z,7.30
2018-02-22T20:26:05.245Z,7.28
2018-02-22T20:28:33.246Z,11.27
2018-02-22T20:31:01.236Z,11.80
2018-02-22T20:33:29.249Z,6.15
2018-02-22T20:35:57.250Z,9.43
2018-02-22T20:38:25.306Z,11.23
2018-02-22T20:40:53.327Z,9.07
2018-02-22T20:43:21.381Z,6.35
2018-02-22T20:45:49.450Z,6.62
2018-02-22T20:48:17.537Z,9.20
2018-02-22T20:50:45.633Z,8.48
2018-02-22T20:53:30.431Z,6.47
2018-02-22T20:55:58.470Z,7.20
2018-02-22T20:58:26.494Z,19.92
2018-02-22T21:00:54.446Z,15.85
2018-02-22T21:03:23.297Z,7.80
2018-02-22T21:05:51.381Z,8.07
2018-02-22T21:08:19.397Z,8.20
2018-02-22T21:10:47.471Z,9.05
2018-02-22T21:13:15.493Z,8.65
2018-02-22T21:15:43.477Z,11.77
2018-02-22T21:18:11.493Z,9.43
2018-02-22T21:20:39.529Z,10.57
2018-02-22T21:23:07.516Z,9.63
2018-02-22T21:25:35.525Z,8.23
2018-02-22T21:28:03.546Z,8.20
2018-02-22T21:30:31.538Z,10.50
2018-02-22T21:32:59.525Z,8.20
2018-02-22T21:35:27.542Z,9.80
2018-02-22T21:37:55.524Z,8.18
2018-02-22T21:40:23.642Z,10.50
2018-02-22T21:42:51.884Z,8.38
2018-02-22T21:45:19.980Z,8.05
2018-02-22T21:47:48.172Z,10.70
2018-02-22T21:50:16.254Z,10.40
2018-02-22T21:52:44.266Z,6.80
2018-02-22T21:55:12.294Z,7.37
2018-02-22T21:57:40.284Z,9.68
2018-02-22T22:00:08.373Z,18.00
2018-02-22T22:02:36.415Z,10.75
2018-02-22T22:05:04.446Z,9.25
2018-02-22T22:07:32.443Z,9.65
2018-02-22T22:10:00.453Z,11.73
2018-02-22T22:12:28.461Z,9.93
2018-02-22T22:14:56.477Z,10.70
2018-02-22T22:17:24.507Z,10.48
2018-02-22T22:19:52.554Z,6.00
2018-02-22T22:22:20.550Z,11.43
2018-02-22T22:24:48.660Z,11.48
2018-02-22T22:27:17.858Z,9.02
2018-02-22T22:29:45.869Z,8.68
2018-02-22T22:32:13.833Z,6.78
2018-02-22T22:34:41.828Z,7.80
2018-02-22T22:37:10.902Z,11.38
2018-02-22T22:39:38.866Z,11.48
2018-02-22T22:42:06.893Z,11.25
2018-02-22T22:44:34.930Z,12.85
2018-02-22T22:47:02.965Z,11.77
2018-02-22T22:49:30.930Z,10.38
2018-02-22T22:51:58.912Z,19.42
2018-02-22T22:54:26.916Z,10.65
2018-02-22T22:56:54.914Z,8.10
2018-02-22T22:59:22.994Z,11.15
2018-02-22T23:01:51.052Z,7.72
2018-02-22T23:04:19.127Z,8.65
2018-02-22T23:06:47.154Z,8.45
2018-02-22T23:09:15.202Z,13.23
2018-02-22T23:11:43.203Z,11.20
2018-02-22T23:14:11.207Z,8.75
2018-02-22T23:16:39.269Z,8.70
2018-02-22T23:19:07.377Z,11.20
2018-02-22T23:21:35.469Z,11.27
2018-02-22T23:24:03.461Z,7.65
2018-02-22T23:26:31.474Z,9.88
2018-02-22T23:28:59.476Z,13.40
2018-02-22T23:31:27.507Z,8.40
2018-02-22T23:33:55.587Z,9.65
2018-02-22T23:36:23.647Z,12.65
2018-02-22T23:38:51.746Z,12.93
2018-02-22T23:41:25.867Z,9.82
2018-02-22T23:43:53.818Z,11.50
2018-02-22T23:46:21.862Z,9.63
2018-02-22T23:48:50.058Z,6.28
2018-02-22T23:51:18.146Z,11.80
2018-02-22T23:53:46.214Z,10.40
2018-02-22T23:56:14.237Z,8.07
2018-02-22T23:58:42.205Z,10.63
